createdAt,value
2022-08-09T00:00:00.706Z,23.20
2022-08-09T00:02:34.538Z,23.30
2022-08-09T00:06:18.384Z,23.20
2022-08-09T00:07:54.426Z,23.20
2022-08-09T00:10:24.520Z,23.10
2022-08-09T00:12:53.470Z,23.10
2022-08-09T00:18:11.471Z,23.00
2022-08-09T00:20:42.153Z,23.00
2022-08-09T00:23:54.875Z,22.40
2022-08-09T00:26:11.323Z,22.90
2022-08-09T00:28:40.082Z,22.80
2022-08-09T00:31:09.353Z,22.80
2022-08-09T00:33:57.829Z,22.70
2022-08-09T00:36:27.192Z,22.60
2022-08-09T00:39:00.331Z,22.60
2022-08-09T00:44:10.865Z,22.60
2022-08-09T00:44:27.634Z,22.60
2022-08-09T00:47:05.489Z,22.60
2022-08-09T00:49:36.853Z,22.60
2022-08-09T00:52:17.304Z,22.50
2022-08-09T00:54:48.977Z,22.60
2022-08-09T01:00:21.411Z,22.50
2022-08-09T01:02:53.281Z,22.50
2022-08-09T01:05:46.398Z,22.40
2022-08-09T01:08:26.983Z,22.40
2022-08-09T01:11:09.711Z,22.30
2022-08-09T01:13:58.701Z,22.30
2022-08-09T01:16:33.692Z,22.20
2022-08-09T01:19:17.247Z,22.20
2022-08-09T01:22:16.455Z,22.30
2022-08-09T01:24:56.803Z,22.20
2022-08-09T01:27:29.203Z,22.20
2022-08-09T01:30:01.392Z,22.10
2022-08-09T01:32:34.754Z,22.00
2022-08-09T01:35:28.433Z,22.10
2022-08-09T01:38:09.609Z,22.10
2022-08-09T01:40:43.509Z,22.00
2022-08-09T01:43:14.502Z,22.10
2022-08-09T01:45:47.693Z,22.00
2022-08-09T01:48:18.452Z,22.00
2022-08-09T01:50:55.010Z,21.90
2022-08-09T01:53:29.260Z,21.90
2022-08-09T01:56:11.283Z,21.80
2022-08-09T01:58:43.814Z,21.80
2022-08-09T02:01:18.709Z,21.80
2022-08-09T02:03:48.566Z,21.80
2022-08-09T02:06:45.340Z,21.80
2022-08-09T02:09:16.407Z,21.80
2022-08-09T02:11:45.839Z,21.70
2022-08-09T02:14:25.686Z,21.70
2022-08-09T02:16:59.711Z,21.70
2022-08-09T02:19:44.113Z,21.70
2022-08-09T02:22:38.023Z,21.70
2022-08-09T02:25:15.231Z,21.60
2022-08-09T02:27:57.952Z,21.60
2022-08-09T02:30:32.984Z,21.60
2022-08-09T02:33:03.781Z,21.50
2022-08-09T02:36:03.015Z,21.50
2022-08-09T02:38:32.095Z,21.50
2022-08-09T02:41:08.581Z,21.30
2022-08-09T02:43:53.536Z,21.50
2022-08-09T02:46:28.612Z,21.40
2022-08-09T02:49:00.327Z,21.40
2022-08-09T02:51:37.207Z,21.40
2022-08-09T02:54:13.825Z,21.40
2022-08-09T02:56:51.235Z,21.30
2022-08-09T02:59:36.320Z,21.30
2022-08-09T03:02:11.957Z,21.30
2022-08-09T03:04:41.930Z,21.30
2022-08-09T03:07:14.524Z,21.20
2022-08-09T03:09:56.248Z,21.20
2022-08-09T03:12:27.564Z,21.20
2022-08-09T03:14:57.920Z,21.20
2022-08-09T03:17:29.398Z,21.20
2022-08-09T03:20:05.260Z,21.10
2022-08-09T03:22:41.765Z,21.10
2022-08-09T03:25:25.752Z,21.00
2022-08-09T03:28:20.191Z,19.20
2022-08-09T03:30:50.313Z,20.90
2022-08-09T03:33:23.004Z,20.90
2022-08-09T03:36:15.557Z,20.80
2022-08-09T03:38:44.713Z,20.80
2022-08-09T03:41:14.601Z,20.80
2022-08-09T03:44:02.943Z,20.80
2022-08-09T03:46:36.975Z,20.80
2022-08-09T03:49:09.289Z,20.70
2022-08-09T03:51:54.082Z,20.70
2022-08-09T03:54:29.338Z,20.70
2022-08-09T03:57:00.531Z,20.70
2022-08-09T03:59:43.256Z,20.70
2022-08-09T04:02:19.786Z,20.60
2022-08-09T04:04:58.640Z,20.60
2022-08-09T04:07:47.592Z,20.60
2022-08-09T04:10:20.283Z,20.60
2022-08-09T04:12:51.568Z,20.60
2022-08-09T04:15:40.496Z,20.60
2022-08-09T04:18:16.609Z,20.50
2022-08-09T04:20:48.667Z,20.50
2022-08-09T04:23:17.854Z,20.50
2022-08-09T04:25:51.924Z,20.40
2022-08-09T04:28:33.163Z,20.40
2022-08-09T04:31:07.787Z,20.40
2022-08-09T04:33:51.452Z,20.40
2022-08-09T04:36:24.923Z,20.40
2022-08-09T04:38:53.859Z,20.40
2022-08-09T04:41:24.405Z,20.40
2022-08-09T04:44:06.468Z,20.30
2022-08-09T04:46:58.361Z,20.40
2022-08-09T04:49:52.347Z,20.40
2022-08-09T04:52:26.666Z,20.30
2022-08-09T04:54:56.825Z,20.50
2022-08-09T04:57:25.444Z,20.40
2022-08-09T04:59:55.684Z,20.40
2022-08-09T05:02:30.673Z,20.40
2022-08-09T05:05:09.861Z,20.40
2022-08-09T05:07:39.910Z,20.40
2022-08-09T05:10:09.974Z,20.40
2022-08-09T05:12:38.338Z,20.50
2022-08-09T05:15:11.796Z,20.50
2022-08-09T05:18:38.171Z,20.50
2022-08-09T05:20:32.651Z,20.50
2022-08-09T05:23:55.428Z,20.60
2022-08-09T05:25:54.222Z,20.50
2022-08-09T05:28:25.486Z,20.60
2022-08-09T05:30:53.835Z,20.60
2022-08-09T05:33:26.200Z,20.60
2022-08-09T05:35:57.031Z,20.60
2022-08-09T05:38:27.923Z,20.70
2022-08-09T05:40:59.482Z,20.70
2022-08-09T05:43:29.107Z,20.70
2022-08-09T05:46:01.710Z,20.80
2022-08-09T05:48:33.309Z,20.80
2022-08-09T05:51:42.354Z,20.80
2022-08-09T05:53:57.585Z,20.90
2022-08-09T05:56:27.844Z,20.90
2022-08-09T05:59:07.491Z,20.90
2022-08-09T06:04:44.570Z,21.00
2022-08-09T06:07:21.138Z,21.00
2022-08-09T06:09:54.499Z,21.10
2022-08-09T06:12:34.784Z,21.10
2022-08-09T06:15:10.095Z,21.20
2022-08-09T06:17:40.673Z,21.20
2022-08-09T06:20:11.945Z,21.20
2022-08-09T06:22:47.577Z,21.20
2022-08-09T06:25:21.619Z,21.20
2022-08-09T06:27:51.814Z,21.40
2022-08-09T06:30:20.643Z,21.50
2022-08-09T06:32:59.691Z,21.40
2022-08-09T06:35:57.334Z,21.60
2022-08-09T06:38:31.877Z,21.60
2022-08-09T06:41:18.922Z,21.60
2022-08-09T06:43:49.747Z,21.70
2022-08-09T06:46:40.219Z,21.70
2022-08-09T06:49:09.585Z,21.80
2022-08-09T06:51:40.028Z,21.90
2022-08-09T06:54:13.922Z,21.90
2022-08-09T06:56:53.103Z,22.10
2022-08-09T07:00:51.173Z,22.20
2022-08-09T07:02:17.379Z,22.20
2022-08-09T07:04:45.852Z,22.30
2022-08-09T07:07:59.833Z,22.50
2022-08-09T07:10:15.653Z,22.80
2022-08-09T07:12:57.496Z,23.00
2022-08-09T07:16:36.392Z,23.30
2022-08-09T07:18:21.288Z,23.80
2022-08-09T07:21:08.288Z,26.20
2022-08-09T07:23:46.618Z,30.60
2022-08-09T07:27:03.364Z,32.40
2022-08-09T07:29:42.917Z,34.00
2022-08-09T07:32:11.480Z,34.70
2022-08-09T07:34:40.109Z,35.20
2022-08-09T07:37:42.705Z,35.80
2022-08-09T07:40:16.733Z,35.70
2022-08-09T07:46:09.212Z,35.80
2022-08-09T07:48:59.183Z,36.10
2022-08-09T07:52:05.213Z,36.00
2022-08-09T07:54:27.634Z,36.10
2022-08-09T07:57:11.630Z,36.40
2022-08-09T08:32:24.530Z,35.10
2022-08-09T08:35:13.175Z,34.60
2022-08-09T08:38:02.177Z,34.20
2022-08-09T08:40:34.261Z,34.00
2022-08-09T08:43:13.144Z,33.60
2022-08-09T08:45:53.285Z,33.40
2022-08-09T08:48:34.176Z,33.30
2022-08-09T08:51:04.924Z,33.20
2022-08-09T08:53:37.224Z,32.30
2022-08-09T08:56:06.465Z,32.30
2022-08-09T08:59:49.028Z,32.20
2022-08-09T09:01:44.736Z,31.60
2022-08-09T09:04:26.899Z,32.10
2022-08-09T09:06:59.009Z,31.70
2022-08-09T09:09:58.692Z,31.80
2022-08-09T09:12:34.127Z,31.90
2022-08-09T09:15:05.873Z,31.80
2022-08-09T09:17:49.150Z,31.60
2022-08-09T09:20:23.126Z,31.80
2022-08-09T09:28:05.395Z,31.60
2022-08-09T09:36:01.658Z,31.30
2022-08-09T09:55:35.425Z,31.20
2022-08-09T10:05:23.883Z,31.60
2022-08-09T10:08:26.161Z,31.90
2022-08-09T10:10:54.474Z,32.20
2022-08-09T10:13:43.180Z,32.10
2022-08-09T10:16:56.954Z,32.30
2022-08-09T10:19:05.032Z,32.10
2022-08-09T10:21:34.327Z,32.00
2022-08-09T10:24:05.105Z,32.10
2022-08-09T10:27:10.209Z,32.20
2022-08-09T10:30:35.161Z,32.30
2022-08-09T10:32:42.453Z,32.10
2022-08-09T10:35:13.242Z,32.10
2022-08-09T10:37:42.065Z,31.00
2022-08-09T10:40:35.208Z,32.30
2022-08-09T10:43:02.037Z,32.10
2022-08-09T10:45:35.703Z,31.30
2022-08-09T10:48:30.431Z,31.00
2022-08-09T10:51:12.272Z,31.10
2022-08-09T10:53:55.135Z,31.40
2022-08-09T10:56:49.205Z,31.70
2022-08-09T10:59:35.445Z,31.90
2022-08-09T11:03:18.428Z,32.30
2022-08-09T11:05:30.096Z,32.50
2022-08-09T11:08:30.212Z,32.70
2022-08-09T11:11:08.998Z,32.90
2022-08-09T11:13:50.485Z,32.60
2022-08-09T11:16:39.246Z,32.70
2022-08-09T11:19:11.891Z,32.70
2022-08-09T11:21:55.016Z,32.80
2022-08-09T11:25:09.884Z,32.90
2022-08-09T11:28:04.542Z,33.10
2022-08-09T11:30:36.486Z,33.00
2022-08-09T11:33:10.537Z,33.00
2022-08-09T11:35:50.203Z,33.00
2022-08-09T11:38:42.627Z,33.00
2022-08-09T11:41:38.028Z,33.10
2022-08-09T11:44:11.490Z,33.10
2022-08-09T11:46:59.586Z,33.10
2022-08-09T11:50:57.034Z,33.10
2022-08-09T11:53:58.655Z,32.90
2022-08-09T11:56:34.496Z,32.50
2022-08-09T11:59:12.278Z,32.20
2022-08-09T12:02:17.091Z,32.00
2022-08-09T12:04:37.356Z,31.90
2022-08-09T12:07:07.711Z,31.70
2022-08-09T12:09:50.628Z,31.60
2022-08-09T12:12:31.806Z,31.20
2022-08-09T12:15:07.525Z,30.80
2022-08-09T12:17:45.696Z,30.60
2022-08-09T12:20:22.461Z,30.60
2022-08-09T12:22:55.872Z,30.50
2022-08-09T12:25:32.036Z,30.50
2022-08-09T12:29:11.490Z,30.60
2022-08-09T12:30:59.818Z,30.40
2022-08-09T12:33:51.083Z,30.50
2022-08-09T12:36:31.225Z,30.40
2022-08-09T12:39:01.614Z,30.40
2022-08-09T12:41:39.535Z,30.30
2022-08-09T12:44:20.032Z,30.30
2022-08-09T12:46:53.785Z,30.30
2022-08-09T12:49:26.203Z,30.20
2022-08-09T12:52:01.069Z,30.20
2022-08-09T12:56:10.625Z,31.90
2022-08-09T12:57:43.116Z,30.20
2022-08-09T13:00:19.227Z,30.10
2022-08-09T13:02:56.015Z,30.00
2022-08-09T13:05:26.758Z,29.90
2022-08-09T13:08:21.208Z,29.80
2022-08-09T13:11:23.052Z,30.00
2022-08-09T13:14:37.288Z,30.00
2022-08-09T13:17:04.115Z,29.80
2022-08-09T13:20:09.095Z,29.80
2022-08-09T13:22:36.418Z,29.90
2022-08-09T13:25:17.289Z,30.00
2022-08-09T13:27:55.774Z,30.00
2022-08-09T13:31:53.514Z,29.90
2022-08-09T13:33:35.962Z,29.80
2022-08-09T13:36:24.356Z,29.80
2022-08-09T13:41:45.994Z,29.80
2022-08-09T13:42:00.735Z,29.80
2022-08-09T13:44:30.847Z,29.60
2022-08-09T13:47:29.288Z,29.50
2022-08-09T13:49:57.283Z,29.40
2022-08-09T13:52:26.712Z,29.40
2022-08-09T13:54:59.305Z,29.50
2022-08-09T13:57:36.702Z,29.40
2022-08-09T14:00:12.467Z,29.40
2022-08-09T14:03:03.124Z,29.40
2022-08-09T14:06:00.527Z,29.40
2022-08-09T14:08:21.551Z,29.40
2022-08-09T14:10:52.932Z,29.40
2022-08-09T14:14:22.046Z,29.40
2022-08-09T14:16:28.872Z,29.40
2022-08-09T14:18:59.551Z,28.40
2022-08-09T14:21:29.571Z,29.50
2022-08-09T14:24:01.149Z,29.50
2022-08-09T14:26:51.813Z,29.50
2022-08-09T14:30:35.286Z,29.50
2022-08-09T14:32:16.187Z,29.40
2022-08-09T14:34:46.754Z,29.50
2022-08-09T14:37:28.259Z,29.40
2022-08-09T14:39:57.166Z,29.40
2022-08-09T14:42:30.204Z,29.30
2022-08-09T14:46:54.751Z,29.30
2022-08-09T14:47:58.610Z,29.50
2022-08-09T14:50:31.118Z,29.60
2022-08-09T14:53:00.812Z,29.60
2022-08-09T14:55:32.119Z,29.60
2022-08-09T14:58:02.920Z,29.60
2022-08-09T15:00:32.226Z,29.50
2022-08-09T15:03:11.156Z,29.50
2022-08-09T15:05:49.545Z,29.40
2022-08-09T15:08:26.420Z,29.50
2022-08-09T15:11:07.244Z,28.80
2022-08-09T15:13:48.635Z,28.60
2022-08-09T15:16:31.374Z,29.30
2022-08-09T15:19:05.658Z,29.20
2022-08-09T15:21:58.458Z,29.30
2022-08-09T15:24:30.827Z,29.30
2022-08-09T15:27:20.746Z,29.20
2022-08-09T15:30:56.452Z,29.20
2022-08-09T15:32:37.376Z,29.30
2022-08-09T15:35:40.082Z,29.40
2022-08-09T15:38:11.867Z,29.40
2022-08-09T15:40:56.124Z,30.30
2022-08-09T15:43:37.053Z,29.40
2022-08-09T15:46:28.407Z,29.40
2022-08-09T15:49:21.658Z,29.40
2022-08-09T15:52:04.740Z,29.40
2022-08-09T15:54:49.443Z,29.40
2022-08-09T15:57:34.118Z,29.40
2022-08-09T16:00:06.287Z,29.30
2022-08-09T16:02:34.914Z,29.30
2022-08-09T16:05:06.748Z,28.80
2022-08-09T16:07:38.778Z,29.30
2022-08-09T16:10:38.831Z,29.20
2022-08-09T16:13:03.325Z,29.30
2022-08-09T16:16:10.495Z,29.30
2022-08-09T16:18:21.769Z,29.30
2022-08-09T16:20:54.361Z,29.40
2022-08-09T16:23:26.901Z,29.60
2022-08-09T16:26:02.800Z,29.60
2022-08-09T16:28:31.485Z,29.50
2022-08-09T16:31:15.920Z,29.50
2022-08-09T16:33:45.163Z,29.40
2022-08-09T16:36:48.103Z,29.40
2022-08-09T16:39:26.355Z,29.40
2022-08-09T16:44:56.631Z,29.40
2022-08-09T16:48:42.197Z,29.50
2022-08-09T16:50:34.836Z,29.50
2022-08-09T16:53:32.540Z,29.40
2022-08-09T16:56:11.389Z,29.40
2022-08-09T16:58:50.445Z,29.30
2022-08-09T17:01:24.625Z,29.30
2022-08-09T17:03:52.951Z,29.20
2022-08-09T17:06:31.802Z,29.10
2022-08-09T17:09:43.955Z,29.10
2022-08-09T17:15:58.677Z,29.10
2022-08-09T17:21:29.076Z,29.00
2022-08-09T17:24:20.934Z,29.10
2022-08-09T17:27:15.383Z,29.00
2022-08-09T17:35:52.126Z,29.00
2022-08-09T17:38:57.903Z,28.90
2022-08-09T17:41:39.029Z,28.90
2022-08-09T17:44:42.383Z,28.90
2022-08-09T17:47:03.998Z,28.90
2022-08-09T17:50:03.984Z,28.90
2022-08-09T17:52:42.335Z,28.70
2022-08-09T17:55:17.607Z,28.80
2022-08-09T17:58:05.355Z,28.70
2022-08-09T18:00:46.368Z,28.80
2022-08-09T18:03:17.971Z,28.80
2022-08-09T18:05:52.992Z,28.80
2022-08-09T18:08:27.283Z,28.80
2022-08-09T18:11:01.886Z,28.70
2022-08-09T18:13:43.141Z,28.70
2022-08-09T18:16:34.555Z,28.70
2022-08-09T18:20:54.501Z,28.70
2022-08-09T18:21:58.062Z,28.60
2022-08-09T18:24:29.114Z,28.70
2022-08-09T18:27:04.018Z,28.60
2022-08-09T18:30:37.645Z,28.50
2022-08-09T18:32:22.778Z,28.50
2022-08-09T18:34:55.230Z,28.40
2022-08-09T18:37:48.195Z,28.40
2022-08-09T18:40:14.951Z,28.30
2022-08-09T18:42:47.751Z,28.40
2022-08-09T18:45:21.681Z,28.40
2022-08-09T18:48:04.817Z,28.30
2022-08-09T18:50:33.498Z,28.30
2022-08-09T18:53:04.015Z,28.30
2022-08-09T18:55:56.432Z,28.20
2022-08-09T18:58:32.034Z,28.20
2022-08-09T19:01:02.012Z,28.10
2022-08-09T19:04:00.925Z,28.10
2022-08-09T19:06:21.853Z,28.10
2022-08-09T19:08:54.951Z,28.00
2022-08-09T19:11:37.768Z,27.90
2022-08-09T19:14:29.070Z,27.80
2022-08-09T19:17:02.323Z,28.00
2022-08-09T19:19:41.452Z,27.90
2022-08-09T19:22:16.745Z,27.90
2022-08-09T19:25:12.083Z,27.90
2022-08-09T19:28:13.306Z,27.80
2022-08-09T19:31:02.599Z,27.80
2022-08-09T19:33:59.807Z,27.70
2022-08-09T19:36:43.834Z,27.70
2022-08-09T19:39:16.014Z,27.60
2022-08-09T19:41:45.745Z,27.60
2022-08-09T19:44:14.342Z,27.50
2022-08-09T19:50:09.569Z,27.50
2022-08-09T19:54:43.098Z,27.40
2022-08-09T19:57:13.030Z,27.40
2022-08-09T20:00:01.900Z,27.30
2022-08-09T20:04:08.334Z,27.60
2022-08-09T20:05:20.114Z,27.30
2022-08-09T20:07:58.742Z,27.30
2022-08-09T20:10:36.400Z,27.10
2022-08-09T20:13:09.385Z,27.20
2022-08-09T20:16:36.246Z,27.10
2022-08-09T20:18:28.393Z,27.10
2022-08-09T20:20:58.129Z,27.20
2022-08-09T20:23:39.304Z,27.10
2022-08-09T20:26:52.823Z,27.10
2022-08-09T20:29:23.171Z,27.00
2022-08-09T20:32:30.694Z,27.00
2022-08-09T20:34:40.795Z,26.90
2022-08-09T20:37:09.223Z,26.90
2022-08-09T20:40:17.587Z,26.90
2022-08-09T20:42:26.645Z,26.80
2022-08-09T20:45:57.767Z,26.80
2022-08-09T20:47:48.411Z,26.80
2022-08-09T20:50:47.036Z,26.80
2022-08-09T20:53:22.766Z,26.70
2022-08-09T20:56:00.471Z,26.70
2022-08-09T20:58:32.505Z,26.70
2022-08-09T21:01:32.226Z,26.60
2022-08-09T21:04:08.051Z,26.60
2022-08-09T21:06:44.285Z,26.60
2022-08-09T21:09:14.327Z,26.50
2022-08-09T21:14:38.247Z,26.40
2022-08-09T21:18:21.807Z,26.40
2022-08-09T21:20:18.394Z,26.40
2022-08-09T21:22:54.186Z,26.40
2022-08-09T21:25:44.363Z,26.30
2022-08-09T21:28:35.254Z,26.20
2022-08-09T21:31:17.241Z,26.20
2022-08-09T21:33:52.491Z,26.10
2022-08-09T21:36:23.086Z,26.10
2022-08-09T21:38:57.413Z,26.10
2022-08-09T21:42:04.118Z,26.10
2022-08-09T21:44:33.886Z,26.10
2022-08-09T21:47:08.595Z,26.00
2022-08-09T21:49:42.599Z,26.00
2022-08-09T21:52:14.942Z,26.00
2022-08-09T21:54:50.906Z,25.90
2022-08-09T21:57:38.734Z,25.90
2022-08-09T22:00:25.845Z,25.90
2022-08-09T22:02:59.335Z,25.80
2022-08-09T22:05:37.687Z,25.70
2022-08-09T22:08:14.727Z,25.80
2022-08-09T22:11:50.196Z,25.70
2022-08-09T22:13:35.447Z,25.70
2022-08-09T22:16:07.645Z,25.60
2022-08-09T22:18:37.512Z,25.60
2022-08-09T22:21:09.271Z,25.60
2022-08-09T22:24:01.617Z,25.50
2022-08-09T22:27:06.060Z,25.60
2022-08-09T22:29:46.488Z,25.40
2022-08-09T22:32:30.303Z,25.50
2022-08-09T22:35:04.305Z,25.40
2022-08-09T22:40:20.155Z,25.40
2022-08-09T22:42:48.962Z,25.30
2022-08-09T22:48:14.813Z,25.30
2022-08-09T22:48:19.638Z,25.20
2022-08-09T22:50:55.108Z,25.20
2022-08-09T22:59:05.725Z,25.10
2022-08-09T23:01:50.599Z,25.00
2022-08-09T23:04:19.314Z,25.00
2022-08-09T23:07:10.935Z,24.90
2022-08-09T23:09:41.858Z,24.90
2022-08-09T23:12:10.325Z,24.90
2022-08-09T23:14:42.370Z,24.80
2022-08-09T23:17:11.753Z,24.80
2022-08-09T23:22:30.278Z,24.80
2022-08-09T23:24:59.952Z,24.80
2022-08-09T23:27:28.514Z,24.70
2022-08-09T23:29:56.706Z,24.70
2022-08-09T23:32:25.248Z,24.60
2022-08-09T23:34:53.440Z,24.60
2022-08-09T23:47:21.505Z,24.30
2022-08-09T23:49:49.832Z,24.30
2022-08-09T23:52:18.116Z,24.30
2022-08-09T23:54:51.512Z,24.30
2022-08-09T23:57:21.068Z,24.20
